Aviation Digital Data Service (ADDS)

Output produced by METARs form (0228 UTC 03 September 2015)
found at http://aviationweather.gov/adds/metars/
 
METAR text: KSPB 030153Z AUTO 32010KT 10SM FEW070 19/07 A2993 RMK AO2 SLP133 T01940072
Conditions at: KSPB (SCAPPOOSE , OR, US) observed 0153 UTC 03 September 2015
Temperature: 19.4°C (67°F)
Dewpoint: 7.2°C (45°F) [RH = 45%]
Pressure (altimeter): 29.93 inches Hg (1013.6 mb)
[Sea-level pressure: 1013.3 mb]
Winds: from the NW (320 degrees) at 12 MPH (10 knots; 5.2 m/s)
Visibility: 10 or more miles (16+ km)
Ceiling: at least 12,000 feet AGL
Clouds: few clouds at 7000 feet AGL
Weather: automated observation with no human augmentation;
there may or may not be significant weather present at this time

METAR text: KSPB 030053Z AUTO 30007KT 270V340 10SM FEW075 SCT090 22/05 A2991 RMK AO2 SLP128 T02170050
Conditions at: KSPB (SCAPPOOSE , OR, US) observed 0053 UTC 03 September 2015
Temperature: 21.7°C (71°F)
Dewpoint: 5.0°C (41°F) [RH = 34%]
Pressure (altimeter): 29.91 inches Hg (1013.0 mb)
[Sea-level pressure: 1012.8 mb]
Winds: from the WNW (300 degrees) at 8 MPH (7 knots; 3.6 m/s)
Visibility: 10 or more miles (16+ km)
Ceiling: at least 12,000 feet AGL
Clouds: few clouds at 7500 feet AGL
scattered clouds at 9000 feet AGL
Weather: automated observation with no human augmentation;
there may or may not be significant weather present at this time